Time;durP1;ratioP1;P1;durP2;ratioP2;P2;SDS_P1;SDS_P2;PMS_P1;PMS_P2;Temp;Humidity;BMP_temperature;BMP_pressure;BME280_temperature;BME280_humidity;BME280_pressure;Samples;Min_cycle;Max_cycle;Signal;HPM_P1;HPM_P2
2021/06/17 00:01:34;;;;;;;11.40;7.90;;;20.10;99.90;;;;;;5108773;28;20486;-80
2021/06/17 00:04:00;;;;;;;15.05;8.65;;;20.10;99.90;;;;;;5090222;28;20126;-79
2021/06/17 00:06:26;;;;;;;13.05;7.95;;;20.10;99.90;;;;;;5089104;28;20188;-80
2021/06/17 00:08:52;;;;;;;13.90;9.35;;;20.00;99.90;;;;;;5105099;28;20510;-80
2021/06/17 00:11:18;;;;;;;10.70;8.52;;;20.00;99.90;;;;;;5088629;28;20032;-80
2021/06/17 00:13:44;;;;;;;12.85;8.43;;;20.00;99.90;;;;;;5048862;28;20064;-80
2021/06/17 00:16:10;;;;;;;14.52;9.05;;;20.00;99.90;;;;;;5076694;28;20057;-80
2021/06/17 00:18:38;;;;;;;11.05;8.50;;;20.00;99.90;;;;;;5076308;28;20086;-79
2021/06/17 00:21:04;;;;;;;11.32;8.55;;;20.00;99.90;;;;;;5107677;28;20052;-80
2021/06/17 00:23:31;;;;;;;14.25;9.23;;;20.00;99.90;;;;;;5102934;28;20513;-80
2021/06/17 00:25:57;;;;;;;12.50;9.10;;;20.00;99.90;;;;;;5083912;28;20047;-80
2021/06/17 00:28:24;;;;;;;14.88;9.65;;;20.00;99.90;;;;;;5099051;28;20052;-79
2021/06/17 00:30:50;;;;;;;14.15;10.15;;;19.90;99.90;;;;;;5075487;28;20036;-80
2021/06/17 00:33:16;;;;;;;12.05;9.35;;;19.90;99.90;;;;;;5087452;28;20044;-80
2021/06/17 00:35:42;;;;;;;11.00;9.90;;;19.80;99.90;;;;;;5081259;28;20073;-80
2021/06/17 00:38:08;;;;;;;15.02;9.73;;;19.80;99.90;;;;;;5078733;28;20048;-79
2021/06/17 00:40:34;;;;;;;14.15;10.27;;;19.80;99.90;;;;;;5096829;28;20406;-80
2021/06/17 00:43:01;;;;;;;11.25;9.80;;;19.80;99.90;;;;;;5090890;28;20461;-80
2021/06/17 00:45:33;;;;;;;14.43;10.05;;;19.80;99.90;;;;;;5106031;28;20491;-80
2021/06/17 00:48:00;;;;;;;17.35;10.80;;;19.80;99.90;;;;;;5091557;28;20079;-80
2021/06/17 00:50:31;;;;;;;16.65;10.48;;;19.70;99.90;;;;;;5058571;28;20097;-80
2021/06/17 00:52:58;;;;;;;14.98;10.68;;;19.70;99.90;;;;;;5100790;28;20131;-79
2021/06/17 00:55:24;;;;;;;11.65;10.35;;;19.70;99.90;;;;;;5100220;28;20494;-80
2021/06/17 00:57:50;;;;;;;17.90;10.82;;;19.70;99.90;;;;;;5074789;28;20047;-80
2021/06/17 01:00:17;;;;;;;13.45;10.73;;;19.70;99.90;;;;;;5082047;28;20040;-80
2021/06/17 01:02:43;;;;;;;13.13;10.27;;;19.70;99.90;;;;;;5106702;28;20097;-80
2021/06/17 01:05:12;;;;;;;13.82;10.57;;;19.70;99.90;;;;;;5075826;28;20097;-79
2021/06/17 01:07:48;;;;;;;15.13;11.35;;;19.70;99.90;;;;;;5088244;28;20048;-80
2021/06/17 01:10:52;;;;;;;13.90;11.35;;;19.60;99.90;;;;;;5097171;28;20052;-80
2021/06/17 01:13:44;;;;;;;12.52;10.07;;;19.60;99.90;;;;;;5081401;28;20558;-80
2021/06/17 01:16:28;;;;;;;14.32;11.35;;;19.50;99.90;;;;;;5108712;28;20111;-80
2021/06/17 01:18:58;;;;;;;13.50;10.73;;;19.50;99.90;;;;;;5084689;28;20057;-80
2021/06/17 01:21:36;;;;;;;15.85;11.40;;;19.40;99.90;;;;;;5097099;28;20052;-80
2021/06/17 01:24:22;;;;;;;16.65;11.07;;;19.40;99.90;;;;;;5084802;28;20096;-80
2021/06/17 01:27:20;;;;;;;15.38;11.10;;;19.40;99.90;;;;;;5093500;28;20518;-80
2021/06/17 01:29:51;;;;;;;18.95;11.43;;;19.40;99.90;;;;;;5090310;28;20035;-80
2021/06/17 01:32:19;;;;;;;17.75;11.55;;;19.40;99.90;;;;;;5103631;28;20082;-80
2021/06/17 01:34:48;;;;;;;13.80;11.15;;;19.40;99.90;;;;;;5091094;28;20127;-80
2021/06/17 01:37:17;;;;;;;17.70;11.07;;;19.40;99.90;;;;;;5074726;28;20078;-80
2021/06/17 01:39:45;;;;;;;18.27;12.40;;;19.40;99.90;;;;;;5109405;28;20047;-79
2021/06/17 01:42:12;;;;;;;16.35;11.65;;;19.40;99.90;;;;;;5065438;28;20079;-80
2021/06/17 01:44:38;;;;;;;17.10;11.77;;;19.40;99.90;;;;;;5066606;28;20052;-80
2021/06/17 01:47:06;;;;;;;14.25;10.55;;;19.40;99.90;;;;;;5084587;28;20040;-80
2021/06/17 01:49:35;;;;;;;15.80;11.90;;;19.40;99.90;;;;;;5086565;28;20132;-80
2021/06/17 01:52:03;;;;;;;13.50;11.48;;;19.40;99.90;;;;;;5083105;28;20122;-80
2021/06/17 01:54:31;;;;;;;14.65;11.90;;;19.40;99.90;;;;;;5090589;28;20093;-80
2021/06/17 01:57:00;;;;;;;17.40;12.35;;;19.30;99.90;;;;;;5074781;28;20082;-80
2021/06/17 01:59:29;;;;;;;16.05;12.35;;;19.40;99.90;;;;;;5109411;28;20058;-80
2021/06/17 02:01:57;;;;;;;14.52;11.60;;;19.40;99.90;;;;;;5100292;28;20040;-80
2021/06/17 02:04:25;;;;;;;16.05;12.45;;;19.30;99.90;;;;;;5102455;28;20071;-79
2021/06/17 02:06:52;;;;;;;20.63;12.25;;;19.30;99.90;;;;;;5071710;28;20040;-80
2021/06/17 02:09:21;;;;;;;13.35;11.38;;;19.30;99.90;;;;;;5059501;28;20454;-80
2021/06/17 02:11:48;;;;;;;14.85;12.52;;;19.30;99.90;;;;;;5054606;28;20491;-80
2021/06/17 02:14:14;;;;;;;15.23;11.70;;;19.30;99.90;;;;;;5083374;28;20051;-80
2021/06/17 02:16:43;;;;;;;17.45;11.40;;;19.30;99.90;;;;;;5080179;28;20074;-80
2021/06/17 02:19:20;;;;;;;17.80;12.85;;;19.30;99.90;;;;;;5097421;28;20463;-79
2021/06/17 02:21:52;;;;;;;19.50;12.15;;;19.30;99.90;;;;;;5100240;28;20491;-79
2021/06/17 02:24:19;;;;;;;20.63;13.25;;;19.20;99.90;;;;;;5066787;28;20051;-80
2021/06/17 02:26:47;;;;;;;14.93;12.50;;;19.20;99.90;;;;;;5072868;28;20043;-80
2021/06/17 02:29:17;;;;;;;17.17;12.80;;;19.20;99.90;;;;;;5092583;28;20070;-80
2021/06/17 02:31:46;;;;;;;16.15;12.77;;;19.10;99.90;;;;;;5082417;28;20525;-80
2021/06/17 02:34:14;;;;;;;21.00;13.07;;;19.20;99.90;;;;;;5108696;28;20157;-80
2021/06/17 02:36:41;;;;;;;14.18;12.50;;;19.20;99.90;;;;;;5075006;28;20055;-80
2021/06/17 02:39:08;;;;;;;15.63;13.20;;;19.20;99.90;;;;;;5072190;28;20059;-80
2021/06/17 02:41:40;;;;;;;15.02;12.63;;;19.10;99.90;;;;;;5101047;28;20176;-80
2021/06/17 02:44:07;;;;;;;21.42;13.80;;;19.10;99.90;;;;;;5102051;28;20110;-80
2021/06/17 02:46:33;;;;;;;16.52;14.07;;;19.10;99.90;;;;;;5090298;28;20051;-80
2021/06/17 02:48:59;;;;;;;17.73;13.52;;;19.10;99.90;;;;;;5086741;28;20441;-79
2021/06/17 02:51:25;;;;;;;20.50;14.68;;;19.10;99.90;;;;;;5068135;28;20118;-80
2021/06/17 02:53:50;;;;;;;19.65;14.95;;;19.10;99.90;;;;;;5098055;28;20058;-80
2021/06/17 02:56:43;;;;;;;15.38;13.77;;;19.10;99.90;;;;;;5077926;28;20043;-80
2021/06/17 02:59:40;;;;;;;16.20;13.50;;;19.10;99.90;;;;;;5063786;28;20059;-80
2021/06/17 03:02:37;;;;;;;19.63;13.68;;;19.10;99.90;;;;;;5062674;28;20147;-80
2021/06/17 03:05:14;;;;;;;18.98;15.25;;;19.20;99.90;;;;;;5071652;28;20047;-80
2021/06/17 03:07:50;;;;;;;16.90;15.18;;;19.20;99.90;;;;;;5081440;28;20058;-80
2021/06/17 03:10:19;;;;;;;17.02;13.57;;;19.20;99.90;;;;;;5100759;28;20048;-79
2021/06/17 03:12:47;;;;;;;15.85;14.02;;;19.20;99.90;;;;;;5091675;28;20539;-80
2021/06/17 03:15:13;;;;;;;15.82;13.88;;;19.20;99.90;;;;;;5104168;28;20048;-80
2021/06/17 03:17:43;;;;;;;19.70;14.75;;;19.30;99.90;;;;;;5059938;28;20052;-80
2021/06/17 03:20:09;;;;;;;17.52;13.35;;;19.30;99.90;;;;;;5084168;28;20117;-79
2021/06/17 03:22:38;;;;;;;19.33;14.77;;;19.30;99.90;;;;;;5090831;28;20043;-80
2021/06/17 03:25:08;;;;;;;18.85;15.10;;;19.30;99.90;;;;;;5097513;28;20047;-80
2021/06/17 03:27:35;;;;;;;22.40;15.00;;;19.30;99.90;;;;;;5100546;28;20066;-80
2021/06/17 03:30:04;;;;;;;18.45;14.55;;;19.30;99.90;;;;;;5044680;28;20122;-80
2021/06/17 03:32:32;;;;;;;18.00;13.90;;;19.30;99.90;;;;;;5080626;28;20097;-80
2021/06/17 03:34:59;;;;;;;18.27;14.93;;;19.30;99.90;;;;;;5106992;28;20058;-80
2021/06/17 03:37:28;;;;;;;21.70;14.05;;;19.30;99.90;;;;;;5071186;28;20123;-79
2021/06/17 03:39:59;;;;;;;25.23;15.68;;;19.30;99.90;;;;;;5107635;28;20054;-80
2021/06/17 03:42:26;;;;;;;18.92;14.30;;;19.30;99.90;;;;;;5111196;28;20069;-80
2021/06/17 03:44:54;;;;;;;16.60;14.70;;;19.30;99.90;;;;;;5095331;28;20051;-80
2021/06/17 03:47:24;;;;;;;15.40;13.40;;;19.30;99.90;;;;;;5100972;28;20096;-80
2021/06/17 03:49:51;;;;;;;17.83;14.82;;;19.30;99.90;;;;;;5084753;28;20079;-79
2021/06/17 03:52:19;;;;;;;21.35;15.65;;;19.30;99.90;;;;;;5085386;28;20051;-79
2021/06/17 03:54:46;;;;;;;18.38;16.20;;;19.20;99.90;;;;;;5090320;28;20075;-80
2021/06/17 03:57:12;;;;;;;20.05;16.38;;;19.30;99.90;;;;;;5102145;28;20050;-80
2021/06/17 03:59:41;;;;;;;20.73;15.93;;;19.30;99.90;;;;;;5111914;28;20105;-80
2021/06/17 04:02:07;;;;;;;17.73;15.23;;;19.30;99.90;;;;;;5067662;28;20043;-80
2021/06/17 04:04:35;;;;;;;17.35;15.50;;;19.30;99.90;;;;;;5107532;28;20458;-79
2021/06/17 04:07:04;;;;;;;22.17;16.30;;;19.30;99.90;;;;;;5104065;28;20071;-80
2021/06/17 04:09:33;;;;;;;19.73;15.95;;;19.30;99.90;;;;;;5090929;28;20055;-80
2021/06/17 04:12:09;;;;;;;18.08;15.40;;;19.40;99.90;;;;;;5078935;28;20067;-80
2021/06/17 04:14:42;;;;;;;21.98;16.95;;;19.40;99.90;;;;;;5073842;28;20153;-80
2021/06/17 04:17:13;;;;;;;17.63;15.75;;;19.40;99.90;;;;;;5088391;28;20054;-80
2021/06/17 04:19:41;;;;;;;22.60;16.20;;;19.50;99.90;;;;;;5090849;28;20105;-79
2021/06/17 04:22:09;;;;;;;20.38;16.88;;;19.50;99.90;;;;;;5079482;28;20067;-80
2021/06/17 04:24:41;;;;;;;20.48;17.20;;;19.50;99.90;;;;;;5077677;28;20144;-80
2021/06/17 04:27:07;;;;;;;19.33;17.25;;;19.50;99.90;;;;;;5103817;28;20047;-80
2021/06/17 04:29:38;;;;;;;18.25;15.60;;;19.60;99.90;;;;;;5104908;28;20044;-79
2021/06/17 04:32:07;;;;;;;19.97;16.87;;;19.60;99.90;;;;;;5096049;28;20113;-80
2021/06/17 04:34:34;;;;;;;20.48;18.33;;;19.60;99.90;;;;;;5087941;28;20293;-78
2021/06/17 04:37:03;;;;;;;20.48;17.75;;;19.60;99.90;;;;;;5099655;28;20130;-80
2021/06/17 04:39:29;;;;;;;21.60;17.75;;;19.60;99.90;;;;;;5090285;28;20052;-80
2021/06/17 04:41:57;;;;;;;21.50;18.52;;;19.70;99.90;;;;;;5094857;28;20156;-80
2021/06/17 04:44:23;;;;;;;20.83;18.30;;;19.60;99.90;;;;;;5090876;28;20044;-79
2021/06/17 04:46:50;;;;;;;25.15;19.05;;;19.70;99.90;;;;;;5071876;28;20484;-80
2021/06/17 04:49:18;;;;;;;23.58;18.30;;;19.70;99.90;;;;;;5071170;28;20067;-80
2021/06/17 04:51:47;;;;;;;22.88;19.25;;;19.60;99.90;;;;;;5060725;28;20605;-80
2021/06/17 04:54:22;;;;;;;22.10;19.70;;;19.70;99.90;;;;;;5090479;28;20103;-80
2021/06/17 04:56:48;;;;;;;22.77;20.02;;;19.70;99.90;;;;;;5023599;28;20067;-80
2021/06/17 04:59:15;;;;;;;25.40;20.92;;;19.60;99.90;;;;;;5054162;28;20418;-80
2021/06/17 05:01:41;;;;;;;21.25;19.17;;;19.70;99.90;;;;;;5096295;28;20467;-80
2021/06/17 05:04:08;;;;;;;19.33;17.33;;;19.70;99.90;;;;;;5073299;28;20046;-81
2021/06/17 05:06:37;;;;;;;20.27;17.90;;;19.70;99.90;;;;;;5067528;28;20055;-81
2021/06/17 05:11:51;;;;;;;23.33;19.73;;;19.70;99.90;;;;;;5107779;28;20046;-79
2021/06/17 05:14:21;;;;;;;21.63;19.23;;;19.70;99.90;;;;;;5110566;28;20540;-79
2021/06/17 05:16:47;;;;;;;22.23;18.48;;;19.80;99.90;;;;;;5091202;28;20040;-80
2021/06/17 05:19:15;;;;;;;22.27;19.95;;;19.80;99.90;;;;;;5091092;28;20056;-80
2021/06/17 05:21:42;;;;;;;27.50;20.55;;;19.80;99.90;;;;;;5101749;28;20039;-79
2021/06/17 05:24:09;;;;;;;27.50;22.67;;;19.80;99.90;;;;;;5069869;28;20534;-80
2021/06/17 05:26:51;;;;;;;23.42;20.88;;;19.90;99.90;;;;;;5060282;28;20117;-80
2021/06/17 05:29:16;;;;;;;26.02;22.42;;;19.90;99.90;;;;;;5088366;28;20039;-81
2021/06/17 05:31:42;;;;;;;25.55;22.65;;;20.00;99.90;;;;;;5090389;28;20130;-80
2021/06/17 05:34:08;;;;;;;25.73;22.50;;;20.00;99.90;;;;;;5089542;28;20460;-80
2021/06/17 05:36:34;;;;;;;24.30;21.55;;;20.00;99.90;;;;;;5108897;28;20496;-80
2021/06/17 05:39:00;;;;;;;26.48;23.42;;;20.10;99.90;;;;;;5086917;28;20073;-81
2021/06/17 05:41:26;;;;;;;26.33;23.25;;;20.10;99.90;;;;;;5090638;28;20023;-80
2021/06/17 05:43:52;;;;;;;27.58;24.02;;;20.20;99.90;;;;;;5107940;28;20043;-80
2021/06/17 05:46:27;;;;;;;24.55;21.95;;;20.20;99.90;;;;;;5090178;28;20073;-80
2021/06/17 05:48:53;;;;;;;28.90;24.95;;;20.30;99.90;;;;;;5105729;28;20044;-81
2021/06/17 05:51:19;;;;;;;29.00;24.38;;;20.30;99.90;;;;;;5088839;28;20047;-81
2021/06/17 05:53:45;;;;;;;24.83;22.05;;;20.30;99.90;;;;;;5091090;28;20118;-80
2021/06/17 05:56:11;;;;;;;25.13;22.48;;;20.30;99.90;;;;;;5056530;28;20161;-80
2021/06/17 05:58:37;;;;;;;26.80;23.67;;;20.30;99.90;;;;;;5108359;28;20342;-80
2021/06/17 06:01:04;;;;;;;28.60;24.88;;;20.30;99.90;;;;;;5090315;28;20046;-80
2021/06/17 06:03:30;;;;;;;27.15;24.48;;;20.30;99.90;;;;;;5109793;28;20495;-80
2021/06/17 06:05:55;;;;;;;28.55;23.67;;;20.40;99.90;;;;;;5087195;28;20036;-81
2021/06/17 06:08:21;;;;;;;29.63;25.58;;;20.30;99.90;;;;;;5096505;28;20495;-80
2021/06/17 06:10:47;;;;;;;33.58;26.20;;;20.40;99.90;;;;;;5076269;28;20046;-80
2021/06/17 06:13:14;;;;;;;27.70;24.83;;;20.50;99.90;;;;;;5104867;28;20044;-81
2021/06/17 06:15:41;;;;;;;28.15;25.10;;;20.50;99.90;;;;;;5051994;28;20072;-80
2021/06/17 06:18:14;;;;;;;28.42;25.42;;;20.50;99.90;;;;;;5052610;28;20134;-81
2021/06/17 06:20:43;;;;;;;26.50;23.65;;;20.50;99.90;;;;;;5052841;28;20050;-81
2021/06/17 06:23:09;;;;;;;26.17;23.30;;;20.50;99.90;;;;;;5078881;28;20043;-80
2021/06/17 06:25:35;;;;;;;27.40;24.27;;;20.50;99.90;;;;;;5077267;28;20036;-81
2021/06/17 06:28:02;;;;;;;32.42;25.25;;;20.60;99.90;;;;;;5077421;28;20146;-81
2021/06/17 06:30:28;;;;;;;26.52;23.67;;;20.60;99.90;;;;;;5053999;28;20051;-81
2021/06/17 06:32:55;;;;;;;26.17;23.38;;;20.70;99.90;;;;;;5053132;28;20071;-81
2021/06/17 06:35:21;;;;;;;28.40;25.25;;;20.70;99.90;;;;;;5060495;28;20036;-81
2021/06/17 06:37:51;;;;;;;26.90;24.08;;;20.80;99.90;;;;;;5059167;28;20488;-81
2021/06/17 06:40:20;;;;;;;26.40;23.58;;;20.80;99.90;;;;;;5066503;28;20070;-80
2021/06/17 06:42:46;;;;;;;28.00;24.80;;;20.80;99.90;;;;;;5084075;28;20040;-80
2021/06/17 06:45:13;;;;;;;23.95;21.52;;;20.80;99.90;;;;;;5084034;28;20136;-80
2021/06/17 06:47:39;;;;;;;24.20;21.02;;;20.80;99.90;;;;;;5055409;28;20093;-80
2021/06/17 06:50:05;;;;;;;28.83;21.98;;;20.90;99.90;;;;;;5062937;28;20457;-80
2021/06/17 06:52:31;;;;;;;27.10;22.33;;;21.00;99.90;;;;;;5049359;28;20048;-80
2021/06/17 06:54:58;;;;;;;24.35;21.65;;;21.00;99.90;;;;;;5069138;28;20078;-80
2021/06/17 06:57:26;;;;;;;23.83;21.23;;;21.00;99.90;;;;;;5087826;28;20066;-80
2021/06/17 06:59:51;;;;;;;29.88;22.05;;;21.00;99.90;;;;;;5058753;28;20051;-80
2021/06/17 07:02:18;;;;;;;28.25;22.58;;;21.00;99.90;;;;;;5057821;28;20036;-80
2021/06/17 07:04:44;;;;;;;23.67;21.20;;;21.10;99.90;;;;;;5055815;28;20044;-80
2021/06/17 07:07:10;;;;;;;26.23;22.08;;;21.10;99.90;;;;;;5071805;28;20414;-80
2021/06/17 07:09:36;;;;;;;23.58;21.25;;;21.10;99.90;;;;;;5093412;28;20054;-80
2021/06/17 07:12:03;;;;;;;27.15;22.45;;;21.10;99.90;;;;;;5093100;28;20048;-80
2021/06/17 07:14:29;;;;;;;25.85;22.48;;;21.10;99.90;;;;;;5089353;28;20048;-80
2021/06/17 07:16:59;;;;;;;24.02;20.33;;;21.10;99.90;;;;;;5110163;28;20075;-80
2021/06/17 07:19:25;;;;;;;29.20;22.17;;;21.10;99.90;;;;;;5111726;28;20047;-80
2021/06/17 07:21:51;;;;;;;26.42;20.17;;;21.20;99.90;;;;;;5112762;28;20043;-80
2021/06/17 07:24:17;;;;;;;27.08;20.70;;;21.20;99.90;;;;;;5112160;28;20055;-80
2021/06/17 07:26:43;;;;;;;25.08;19.60;;;21.30;99.90;;;;;;5095309;28;20513;-80
2021/06/17 07:29:09;;;;;;;22.85;19.45;;;21.40;99.90;;;;;;5078102;28;20048;-80
2021/06/17 07:31:37;;;;;;;24.73;20.80;;;21.50;99.90;;;;;;5075586;28;20058;-81
2021/06/17 07:34:04;;;;;;;22.38;19.23;;;21.50;99.90;;;;;;5110937;28;20075;-80
2021/06/17 07:36:30;;;;;;;26.25;19.95;;;21.60;99.90;;;;;;5110233;28;20153;-80
2021/06/17 07:38:56;;;;;;;21.70;17.92;;;21.60;99.90;;;;;;5109501;28;20054;-80
2021/06/17 07:41:22;;;;;;;22.45;18.75;;;21.70;99.90;;;;;;5091677;28;20036;-80
2021/06/17 07:43:48;;;;;;;22.95;18.48;;;21.80;99.90;;;;;;5110282;28;20043;-80
2021/06/17 07:46:14;;;;;;;25.63;15.65;;;21.90;99.90;;;;;;5080576;27;20123;-80
2021/06/17 07:48:40;;;;;;;22.77;18.08;;;22.00;99.90;;;;;;5096153;28;20055;-80
2021/06/17 07:51:10;;;;;;;21.58;17.00;;;22.00;99.90;;;;;;5095000;27;20422;-80
2021/06/17 07:53:36;;;;;;;20.10;16.73;;;22.10;99.90;;;;;;5094240;28;20075;-80
2021/06/17 07:56:03;;;;;;;21.08;15.48;;;22.20;99.90;;;;;;5085375;28;20043;-80
2021/06/17 07:58:30;;;;;;;17.23;15.30;;;22.30;99.90;;;;;;5055551;28;20146;-80
2021/06/17 08:00:56;;;;;;;18.58;16.38;;;22.30;99.90;;;;;;5088599;28;20470;-80
2021/06/17 08:03:23;;;;;;;19.33;14.98;;;22.40;99.90;;;;;;5075235;28;20140;-80
2021/06/17 08:05:49;;;;;;;16.77;13.02;;;22.40;99.90;;;;;;5093980;28;20088;-79
2021/06/17 08:08:16;;;;;;;20.92;15.57;;;22.40;99.90;;;;;;5076012;28;20047;-80
2021/06/17 08:10:42;;;;;;;18.38;14.30;;;22.40;99.90;;;;;;5093867;28;20043;-80
2021/06/17 08:13:08;;;;;;;19.50;12.98;;;22.40;99.90;;;;;;5077134;28;20133;-80
2021/06/17 08:15:34;;;;;;;15.75;12.68;;;22.40;99.90;;;;;;5092876;28;20130;-80
2021/06/17 08:18:01;;;;;;;20.67;13.20;;;22.40;99.90;;;;;;5111369;28;20062;-80
2021/06/17 08:20:28;;;;;;;18.92;13.68;;;22.50;99.90;;;;;;5059138;28;20125;-80
2021/06/17 08:22:54;;;;;;;15.27;12.05;;;22.50;99.90;;;;;;5094132;28;20043;-80
2021/06/17 08:25:19;;;;;;;18.58;12.98;;;22.40;99.90;;;;;;5111891;28;20043;-80
2021/06/17 08:27:45;;;;;;;14.27;12.35;;;22.40;99.90;;;;;;5091959;28;20449;-80
2021/06/17 08:30:14;;;;;;;18.33;13.18;;;22.40;99.90;;;;;;5092448;28;20035;-80
2021/06/17 08:32:40;;;;;;;16.25;10.80;;;22.40;99.90;;;;;;5111636;28;20054;-80
2021/06/17 08:35:07;;;;;;;12.00;9.95;;;22.50;99.90;;;;;;5065332;27;20035;-80
2021/06/17 08:37:33;;;;;;;13.93;10.60;;;22.70;99.90;;;;;;5112918;27;20073;-80
2021/06/17 08:39:59;;;;;;;12.70;10.93;;;22.80;99.90;;;;;;5096057;27;20494;-80
2021/06/17 08:42:26;;;;;;;13.68;9.60;;;22.80;99.90;;;;;;5055969;28;20051;-80
2021/06/17 08:44:57;;;;;;;12.07;10.13;;;22.80;99.90;;;;;;5090826;28;20058;-80
2021/06/17 08:47:23;;;;;;;15.23;10.15;;;22.80;99.90;;;;;;5055373;28;20055;-80
2021/06/17 08:49:54;;;;;;;12.75;9.07;;;22.80;99.90;;;;;;5090457;28;20508;-80
2021/06/17 08:52:21;;;;;;;17.85;10.50;;;22.80;99.90;;;;;;5056914;28;20059;-80
2021/06/17 08:54:48;;;;;;;13.32;10.27;;;22.90;99.90;;;;;;5101135;28;20044;-80
2021/06/17 08:57:14;;;;;;;11.75;9.02;;;23.00;99.90;;;;;;5082649;28;20054;-80
2021/06/17 08:59:41;;;;;;;12.43;10.43;;;23.00;99.90;;;;;;5102828;28;20040;-80
2021/06/17 09:02:08;;;;;;;14.30;9.35;;;22.90;99.90;;;;;;5075232;28;20104;-80
2021/06/17 09:04:34;;;;;;;11.75;8.02;;;23.00;99.90;;;;;;5093473;28;20047;-80
2021/06/17 09:07:05;;;;;;;8.38;7.45;;;23.20;99.90;;;;;;5101017;28;20043;-80
2021/06/17 09:09:38;;;;;;;12.50;8.23;;;23.30;99.90;;;;;;5092409;28;20071;-81
2021/06/17 09:12:06;;;;;;;14.75;8.63;;;23.70;99.90;;;;;;5126439;27;20043;-81
2021/06/17 09:14:55;;;;;;;12.40;9.40;;;23.90;99.90;;;;;;5116010;27;20134;-81
2021/06/17 09:17:21;;;;;;;14.23;9.57;;;24.20;99.90;;;;;;5112341;27;20459;-81
2021/06/17 09:19:51;;;;;;;14.82;9.02;;;24.50;99.90;;;;;;5131428;27;20057;-81
2021/06/17 09:22:22;;;;;;;11.93;8.48;;;24.50;99.90;;;;;;5112406;27;20049;-80
2021/06/17 09:24:52;;;;;;;10.93;8.00;;;24.70;99.90;;;;;;5112624;27;20043;-80
2021/06/17 09:27:21;;;;;;;12.02;9.75;;;25.00;99.90;;;;;;5130522;27;20047;-81
2021/06/17 09:29:51;;;;;;;13.20;9.35;;;25.30;99.90;;;;;;5111824;27;20043;-81
2021/06/17 09:32:26;;;;;;;10.43;7.45;;;25.30;99.90;;;;;;5095742;27;20066;-80
2021/06/17 09:34:52;;;;;;;11.05;7.35;;;25.50;99.90;;;;;;5131079;27;20071;-81
2021/06/17 09:37:32;;;;;;;10.65;7.43;;;25.90;99.90;;;;;;5129714;27;20134;-81
2021/06/17 09:40:00;;;;;;;9.52;7.35;;;26.00;99.90;;;;;;5123698;27;20039;-81
2021/06/17 09:42:31;;;;;;;21.50;7.85;;;26.10;99.90;;;;;;5109493;28;20043;-81
2021/06/17 09:45:00;;;;;;;9.25;7.10;;;26.20;99.90;;;;;;5110456;28;20097;-81
2021/06/17 09:47:32;;;;;;;10.82;8.25;;;26.30;99.90;;;;;;5090703;28;20702;-80
2021/06/17 09:50:00;;;;;;;14.73;8.90;;;26.40;99.90;;;;;;5091788;28;20059;-80
2021/06/17 09:52:40;;;;;;;12.48;7.80;;;26.40;99.90;;;;;;5109065;28;20097;-81
2021/06/17 09:55:06;;;;;;;13.88;9.35;;;26.30;99.90;;;;;;5091948;28;20040;-80
2021/06/17 09:57:39;;;;;;;14.38;9.00;;;26.30;99.90;;;;;;5073954;28;20131;-82
2021/06/17 10:00:10;;;;;;;15.60;9.75;;;26.30;99.90;;;;;;5090252;28;20136;-81
2021/06/17 10:02:38;;;;;;;14.82;9.27;;;26.40;99.90;;;;;;5109537;28;20039;-81
2021/06/17 10:05:19;;;;;;;15.65;11.13;;;26.40;99.90;;;;;;5101630;27;20039;-81
2021/06/17 10:07:46;;;;;;;16.02;10.85;;;26.40;99.90;;;;;;5129427;27;20054;-81
2021/06/17 10:10:14;;;;;;;14.95;11.30;;;26.50;99.90;;;;;;5096526;27;20190;-81
2021/06/17 10:12:42;;;;;;;15.88;11.13;;;26.50;99.90;;;;;;5089217;28;20055;-81
2021/06/17 10:15:10;;;;;;;15.85;9.18;;;26.50;99.90;;;;;;5089164;28;20089;-81
2021/06/17 10:17:36;;;;;;;10.35;8.25;;;26.40;99.90;;;;;;5082324;28;20044;-81
2021/06/17 10:20:09;;;;;;;13.15;8.77;;;26.30;99.90;;;;;;5107047;28;20047;-81
2021/06/17 10:22:37;;;;;;;10.32;8.05;;;26.40;99.90;;;;;;5101395;28;20153;-81
2021/06/17 10:25:05;;;;;;;10.55;8.55;;;26.40;99.90;;;;;;5108932;28;20094;-82
2021/06/17 10:27:38;;;;;;;14.30;8.27;;;26.40;99.90;;;;;;5070822;28;21020;-82
2021/06/17 10:30:06;;;;;;;9.13;7.82;;;26.40;99.90;;;;;;5105172;28;20128;-81
2021/06/17 10:32:43;;;;;;;11.55;8.60;;;26.50;99.90;;;;;;5053950;28;20055;-81
2021/06/17 10:35:10;;;;;;;15.13;8.75;;;26.50;99.90;;;;;;5071818;28;20129;-80
2021/06/17 10:37:51;;;;;;;10.20;8.05;;;26.50;99.90;;;;;;5089772;28;20044;-81
2021/06/17 10:40:23;;;;;;;14.05;8.50;;;26.40;99.90;;;;;;5089991;28;20098;-81
2021/06/17 10:42:52;;;;;;;12.95;7.97;;;26.50;99.90;;;;;;5088734;28;20050;-81
2021/06/17 10:45:45;;;;;;;13.73;8.30;;;26.70;99.90;;;;;;5108646;28;20048;-80
2021/06/17 10:48:42;;;;;;;12.05;8.90;;;26.90;99.90;;;;;;5121610;27;20048;-81
2021/06/17 10:51:09;;;;;;;13.30;10.65;;;26.90;99.90;;;;;;5108288;28;20123;-80
2021/06/17 10:53:35;;;;;;;15.75;9.82;;;26.80;99.90;;;;;;5090951;28;20105;-80
2021/06/17 10:56:18;;;;;;;13.43;10.20;;;26.80;99.90;;;;;;5070467;28;20040;-80
2021/06/17 10:58:44;;;;;;;12.55;8.90;;;26.70;99.90;;;;;;5105676;28;20447;-81
2021/06/17 11:01:34;;;;;;;15.82;10.57;;;26.70;99.90;;;;;;5111448;28;20081;-80
2021/06/17 11:04:14;;;;;;;20.27;9.85;;;26.60;99.90;;;;;;5062283;28;20520;-80
2021/06/17 11:07:06;;;;;;;15.68;10.30;;;26.50;99.90;;;;;;5077778;28;20044;-81
2021/06/17 11:09:35;;;;;;;11.85;8.93;;;26.30;99.90;;;;;;5066442;28;20142;-81
2021/06/17 11:12:22;;;;;;;11.02;7.90;;;26.20;99.90;;;;;;5088657;28;20036;-81
2021/06/17 11:14:54;;;;;;;11.75;6.97;;;26.10;99.90;;;;;;5071325;28;20048;-80
2021/06/17 11:17:29;;;;;;;8.00;5.60;;;25.90;99.90;;;;;;5088006;28;20036;-81
2021/06/17 11:19:57;;;;;;;8.15;5.50;;;25.90;99.90;;;;;;5070394;28;20048;-80
2021/06/17 11:22:41;;;;;;;8.82;4.95;;;25.70;99.90;;;;;;5087483;28;20062;-81
2021/06/17 11:25:12;;;;;;;10.70;5.32;;;25.60;99.90;;;;;;5069205;28;20055;-81
2021/06/17 11:27:56;;;;;;;11.60;6.38;;;25.50;99.90;;;;;;5086269;28;20051;-81
2021/06/17 11:30:37;;;;;;;11.85;7.13;;;25.50;99.90;;;;;;5086788;28;20044;-80
2021/06/17 11:33:18;;;;;;;12.40;6.97;;;25.50;99.90;;;;;;5087030;28;20777;-81
2021/06/17 11:35:50;;;;;;;13.15;7.70;;;25.50;99.90;;;;;;5072177;28;20040;-82
2021/06/17 11:38:23;;;;;;;;;;;25.50;99.90;;;;;;5086520;28;20082;-81
2021/06/17 11:40:49;;;;;;;11.95;7.40;;;25.50;99.90;;;;;;5082958;28;19920;-81
2021/06/17 11:43:20;;;;;;;12.68;8.13;;;25.50;99.90;;;;;;5065487;28;20058;-80
2021/06/17 11:45:46;;;;;;;9.55;6.53;;;25.50;99.90;;;;;;5108380;28;20043;-81
2021/06/17 11:48:12;;;;;;;8.45;6.10;;;25.50;99.90;;;;;;5106875;28;20472;-81
2021/06/17 11:50:45;;;;;;;10.75;6.72;;;25.50;99.90;;;;;;5090269;28;20055;-81
2021/06/17 11:53:27;;;;;;;10.98;6.13;;;25.50;99.90;;;;;;5072989;28;20047;-81
2021/06/17 11:55:55;;;;;;;12.90;6.47;;;25.60;99.90;;;;;;5108347;28;20058;-81
2021/06/17 11:58:28;;;;;;;9.93;5.72;;;25.70;99.90;;;;;;5090101;28;20059;-81
2021/06/17 12:00:58;;;;;;;9.02;7.38;;;26.00;99.90;;;;;;5106591;28;20103;-81
2021/06/17 12:03:25;;;;;;;11.40;7.47;;;26.30;99.90;;;;;;5092748;28;20052;-80
2021/06/17 12:05:52;;;;;;;13.82;7.32;;;26.50;99.90;;;;;;5084560;28;20112;-81
2021/06/17 12:08:24;;;;;;;11.60;7.03;;;27.00;99.90;;;;;;5091710;28;20052;-81
2021/06/17 12:10:57;;;;;;;12.70;7.85;;;27.60;99.90;;;;;;5073110;28;20056;-81
2021/06/17 12:13:23;;;;;;;10.38;6.78;;;27.90;99.90;;;;;;5075026;28;20042;-81
2021/06/17 12:15:58;;;;;;;12.43;7.72;;;28.10;99.90;;;;;;5091246;28;20073;-80
2021/06/17 12:18:25;;;;;;;8.88;7.38;;;28.10;99.90;;;;;;5085956;28;20089;-81
2021/06/17 12:20:51;;;;;;;11.23;6.43;;;28.10;99.90;;;;;;5093099;28;20046;-81
2021/06/17 12:23:30;;;;;;;7.50;5.82;;;28.20;99.90;;;;;;5109891;28;20172;-81
2021/06/17 12:25:58;;;;;;;6.32;5.57;;;28.40;99.90;;;;;;5111793;28;20043;-81
2021/06/17 12:28:26;;;;;;;8.02;5.63;;;28.50;99.90;;;;;;5092941;28;20494;-81
2021/06/17 12:30:53;;;;;;;11.15;6.50;;;28.50;99.90;;;;;;5093718;28;20051;-81
2021/06/17 12:33:20;;;;;;;11.32;9.70;;;28.70;99.90;;;;;;5104742;27;20044;-80
2021/06/17 12:35:54;;;;;;;11.55;8.90;;;28.90;99.90;;;;;;5074478;28;20503;-81
2021/06/17 12:38:32;;;;;;;14.13;8.90;;;29.00;99.90;;;;;;5076858;28;20510;-81
2021/06/17 12:41:18;;;;;;;14.40;8.15;;;29.10;99.90;;;;;;5064248;28;20513;-81
2021/06/17 12:43:52;;;;;;;10.68;7.90;;;29.00;99.90;;;;;;5091206;28;20071;-80
2021/06/17 12:46:37;;;;;;;11.25;7.40;;;29.10;99.90;;;;;;5091345;28;20059;-81